sensor_id;sensor_type;location;lat;lon;timestamp;temperature;humidity
15922;DHT22;8060;50.948;3.146;2022-10-16T06:40:55;13.00;99.90
15922;DHT22;8060;50.948;3.146;2022-10-16T06:43:23;13.10;99.90
15922;DHT22;8060;50.948;3.146;2022-10-16T06:45:52;13.10;99.90
15922;DHT22;8060;50.948;3.146;2022-10-16T06:48:21;13.20;99.90
15922;DHT22;8060;50.948;3.146;2022-10-16T06:50:57;13.20;99.90
15922;DHT22;8060;50.948;3.146;2022-10-16T06:53:27;13.30;99.90
15922;DHT22;8060;50.948;3.146;2022-10-16T06:56:12;13.40;99.90
15922;DHT22;8060;50.948;3.146;2022-10-16T06:58:41;13.40;99.90
15922;DHT22;8060;50.948;3.146;2022-10-16T07:01:11;13.50;99.90
15922;DHT22;8060;50.948;3.146;2022-10-16T07:03:41;13.50;99.90
15922;DHT22;8060;50.948;3.146;2022-10-16T07:06:11;13.50;99.90
15922;DHT22;8060;50.948;3.146;2022-10-16T07:08:41;13.50;99.90
15922;DHT22;8060;50.948;3.146;2022-10-16T07:11:13;13.60;99.90
15922;DHT22;8060;50.948;3.146;2022-10-16T07:13:43;13.60;99.90
15922;DHT22;8060;50.948;3.146;2022-10-16T07:16:21;13.70;99.90
15922;DHT22;8060;50.948;3.146;2022-10-16T07:18:51;13.70;99.90
15922;DHT22;8060;50.948;3.146;2022-10-16T07:21:25;13.70;99.90
15922;DHT22;8060;50.948;3.146;2022-10-16T07:23:56;13.80;99.90
15922;DHT22;8060;50.948;3.146;2022-10-16T07:26:28;13.90;99.90
15922;DHT22;8060;50.948;3.146;2022-10-16T07:28:57;13.90;99.90
15922;DHT22;8060;50.948;3.146;2022-10-16T07:31:26;13.90;99.90
15922;DHT22;8060;50.948;3.146;2022-10-16T07:33:55;14.00;99.90
15922;DHT22;8060;50.948;3.146;2022-10-16T07:36:25;14.00;99.90
15922;DHT22;8060;50.948;3.146;2022-10-16T07:38:53;14.10;99.90
15922;DHT22;8060;50.948;3.146;2022-10-16T07:41:27;14.00;99.90
15922;DHT22;8060;50.948;3.146;2022-10-16T07:43:56;14.10;99.90
15922;DHT22;8060;50.948;3.146;2022-10-16T07:46:27;14.20;99.90
15922;DHT22;8060;50.948;3.146;2022-10-16T07:48:56;14.30;99.90
15922;DHT22;8060;50.948;3.146;2022-10-16T07:51:26;14.30;99.90
15922;DHT22;8060;50.948;3.146;2022-10-16T07:53:54;14.40;99.90
15922;DHT22;8060;50.948;3.146;2022-10-16T07:56:23;14.50;99.90
15922;DHT22;8060;50.948;3.146;2022-10-16T07:58:53;14.60;99.90
15922;DHT22;8060;50.948;3.146;2022-10-16T08:01:24;14.60;99.90
15922;DHT22;8060;50.948;3.146;2022-10-16T08:03:53;14.70;99.90
15922;DHT22;8060;50.948;3.146;2022-10-16T08:06:22;14.80;99.90
15922;DHT22;8060;50.948;3.146;2022-10-16T08:08:54;14.90;99.90
15922;DHT22;8060;50.948;3.146;2022-10-16T08:11:23;15.00;99.90
15922;DHT22;8060;50.948;3.146;2022-10-16T08:13:53;15.10;99.90
15922;DHT22;8060;50.948;3.146;2022-10-16T08:16:21;15.30;99.90
15922;DHT22;8060;50.948;3.146;2022-10-16T08:18:49;15.40;99.90
15922;DHT22;8060;50.948;3.146;2022-10-16T08:21:20;15.50;99.90
15922;DHT22;8060;50.948;3.146;2022-10-16T08:23:50;15.60;99.90
15922;DHT22;8060;50.948;3.146;2022-10-16T08:26:24;15.70;99.90
15922;DHT22;8060;50.948;3.146;2022-10-16T08:28:55;15.80;99.90
15922;DHT22;8060;50.948;3.146;2022-10-16T08:31:24;15.90;99.90
15922;DHT22;8060;50.948;3.146;2022-10-16T08:33:53;16.00;99.90
15922;DHT22;8060;50.948;3.146;2022-10-16T08:36:21;16.10;99.90
15922;DHT22;8060;50.948;3.146;2022-10-16T08:38:50;16.40;99.90
15922;DHT22;8060;50.948;3.146;2022-10-16T08:44:50;16.60;99.90
15922;DHT22;8060;50.948;3.146;2022-10-16T08:47:24;16.70;99.90
15922;DHT22;8060;50.948;3.146;2022-10-16T08:49:57;16.80;99.90
15922;DHT22;8060;50.948;3.146;2022-10-16T08:52:29;16.90;99.90
15922;DHT22;8060;50.948;3.146;2022-10-16T08:54:58;17.00;99.90
15922;DHT22;8060;50.948;3.146;2022-10-16T08:57:27;17.10;99.90
15922;DHT22;8060;50.948;3.146;2022-10-16T09:00:00;17.20;99.90
15922;DHT22;8060;50.948;3.146;2022-10-16T09:02:36;17.30;99.90
15922;DHT22;8060;50.948;3.146;2022-10-16T09:08:09;17.80;99.90
15922;DHT22;8060;50.948;3.146;2022-10-16T09:10:47;18.00;99.90
15922;DHT22;8060;50.948;3.146;2022-10-16T09:13:23;18.20;99.90
15922;DHT22;8060;50.948;3.146;2022-10-16T09:15:59;18.30;99.90
15922;DHT22;8060;50.948;3.146;2022-10-16T09:18:34;18.50;99.90
15922;DHT22;8060;50.948;3.146;2022-10-16T09:21:09;18.80;99.90
15922;DHT22;8060;50.948;3.146;2022-10-16T09:23:40;19.10;99.90
15922;DHT22;8060;50.948;3.146;2022-10-16T09:26:12;19.40;99.90
15922;DHT22;8060;50.948;3.146;2022-10-16T09:28:41;19.60;99.90
15922;DHT22;8060;50.948;3.146;2022-10-16T09:31:16;19.70;99.90
15922;DHT22;8060;50.948;3.146;2022-10-16T09:33:48;19.80;99.90
15922;DHT22;8060;50.948;3.146;2022-10-16T09:36:17;19.80;99.90
15922;DHT22;8060;50.948;3.146;2022-10-16T09:38:45;19.90;99.90
15922;DHT22;8060;50.948;3.146;2022-10-16T09:41:17;20.20;99.90
15922;DHT22;8060;50.948;3.146;2022-10-16T09:43:49;20.20;99.90
15922;DHT22;8060;50.948;3.146;2022-10-16T09:46:30;20.40;99.90
15922;DHT22;8060;50.948;3.146;2022-10-16T09:49:00;20.70;99.90
15922;DHT22;8060;50.948;3.146;2022-10-16T09:51:30;20.90;99.90
15922;DHT22;8060;50.948;3.146;2022-10-16T09:54:00;21.20;99.90
15922;DHT22;8060;50.948;3.146;2022-10-16T09:56:31;21.60;99.90
15922;DHT22;8060;50.948;3.146;2022-10-16T09:59:02;21.60;99.90
15922;DHT22;8060;50.948;3.146;2022-10-16T10:01:38;21.60;99.90
15922;DHT22;8060;50.948;3.146;2022-10-16T10:04:07;21.60;99.90
15922;DHT22;8060;50.948;3.146;2022-10-16T10:06:37;21.70;99.90
15922;DHT22;8060;50.948;3.146;2022-10-16T10:09:17;21.70;99.90
15922;DHT22;8060;50.948;3.146;2022-10-16T10:11:48;22.00;99.90
15922;DHT22;8060;50.948;3.146;2022-10-16T10:14:34;22.20;99.90
15922;DHT22;8060;50.948;3.146;2022-10-16T10:17:20;22.50;99.90
15922;DHT22;8060;50.948;3.146;2022-10-16T10:19:52;22.90;99.90
15922;DHT22;8060;50.948;3.146;2022-10-16T10:22:28;23.30;99.90
15922;DHT22;8060;50.948;3.146;2022-10-16T10:25:14;23.40;99.90
15922;DHT22;8060;50.948;3.146;2022-10-16T10:30:38;23.50;99.90
15922;DHT22;8060;50.948;3.146;2022-10-16T10:33:27;23.60;99.90
15922;DHT22;8060;50.948;3.146;2022-10-16T10:36:05;23.70;99.90
15922;DHT22;8060;50.948;3.146;2022-10-16T10:38:41;23.80;99.90
15922;DHT22;8060;50.948;3.146;2022-10-16T10:44:07;24.00;99.90
15922;DHT22;8060;50.948;3.146;2022-10-16T10:46:44;24.30;99.90
15922;DHT22;8060;50.948;3.146;2022-10-16T10:49:35;24.50;99.90
15922;DHT22;8060;50.948;3.146;2022-10-16T10:52:20;24.90;99.90
15922;DHT22;8060;50.948;3.146;2022-10-16T10:55:01;24.80;99.90
15922;DHT22;8060;50.948;3.146;2022-10-16T10:57:37;25.10;99.90
15922;DHT22;8060;50.948;3.146;2022-10-16T11:00:16;25.30;99.90
15922;DHT22;8060;50.948;3.146;2022-10-16T11:02:52;25.60;99.90
15922;DHT22;8060;50.948;3.146;2022-10-16T11:05:36;25.30;99.90
15922;DHT22;8060;50.948;3.146;2022-10-16T11:08:13;25.40;99.90
15922;DHT22;8060;50.948;3.146;2022-10-16T11:10:48;25.50;99.90
15922;DHT22;8060;50.948;3.146;2022-10-16T11:13:27;25.60;99.90
15922;DHT22;8060;50.948;3.146;2022-10-16T11:15:59;25.60;99.90
15922;DHT22;8060;50.948;3.146;2022-10-16T11:18:33;25.70;99.90
15922;DHT22;8060;50.948;3.146;2022-10-16T11:21:11;25.80;99.90
15922;DHT22;8060;50.948;3.146;2022-10-16T11:23:44;25.70;99.90
15922;DHT22;8060;50.948;3.146;2022-10-16T11:26:20;25.80;99.90
15922;DHT22;8060;50.948;3.146;2022-10-16T11:28:50;26.20;99.90
15922;DHT22;8060;50.948;3.146;2022-10-16T11:31:25;26.20;99.90
15922;DHT22;8060;50.948;3.146;2022-10-16T11:34:01;26.20;99.90
15922;DHT22;8060;50.948;3.146;2022-10-16T11:36:36;26.30;99.90
15922;DHT22;8060;50.948;3.146;2022-10-16T11:39:20;25.90;99.90
15922;DHT22;8060;50.948;3.146;2022-10-16T11:41:51;25.30;99.90
15922;DHT22;8060;50.948;3.146;2022-10-16T11:44:41;24.80;99.90
15922;DHT22;8060;50.948;3.146;2022-10-16T11:47:30;24.40;99.90
15922;DHT22;8060;50.948;3.146;2022-10-16T11:50:23;24.40;99.90
15922;DHT22;8060;50.948;3.146;2022-10-16T11:53:01;24.30;99.90
15922;DHT22;8060;50.948;3.146;2022-10-16T11:55:34;24.10;99.90
15922;DHT22;8060;50.948;3.146;2022-10-16T11:58:16;24.60;99.90
15922;DHT22;8060;50.948;3.146;2022-10-16T12:00:51;24.90;99.90
15922;DHT22;8060;50.948;3.146;2022-10-16T12:03:25;24.70;99.90
15922;DHT22;8060;50.948;3.146;2022-10-16T12:06:06;24.70;99.90
15922;DHT22;8060;50.948;3.146;2022-10-16T12:08:43;25.20;99.90
15922;DHT22;8060;50.948;3.146;2022-10-16T12:11:24;25.60;99.90
15922;DHT22;8060;50.948;3.146;2022-10-16T12:14:22;25.90;99.90
15922;DHT22;8060;50.948;3.146;2022-10-16T12:17:25;25.90;99.90
15922;DHT22;8060;50.948;3.146;2022-10-16T12:19:58;26.00;99.90
15922;DHT22;8060;50.948;3.146;2022-10-16T12:22:29;26.30;99.90
15922;DHT22;8060;50.948;3.146;2022-10-16T12:24:59;26.50;99.90
15922;DHT22;8060;50.948;3.146;2022-10-16T12:27:30;26.30;99.90
15922;DHT22;8060;50.948;3.146;2022-10-16T12:30:00;26.40;99.90
15922;DHT22;8060;50.948;3.146;2022-10-16T12:32:33;26.70;99.90
15922;DHT22;8060;50.948;3.146;2022-10-16T12:35:21;26.80;99.90
15922;DHT22;8060;50.948;3.146;2022-10-16T12:37:50;26.50;99.90
15922;DHT22;8060;50.948;3.146;2022-10-16T12:40:27;26.10;99.90
15922;DHT22;8060;50.948;3.146;2022-10-16T12:42:58;25.50;99.90
15922;DHT22;8060;50.948;3.146;2022-10-16T12:45:30;25.60;99.90
15922;DHT22;8060;50.948;3.146;2022-10-16T12:48:01;26.40;99.90
15922;DHT22;8060;50.948;3.146;2022-10-16T12:50:33;27.20;99.90
15922;DHT22;8060;50.948;3.146;2022-10-16T12:53:04;27.30;99.90
15922;DHT22;8060;50.948;3.146;2022-10-16T12:55:55;26.90;99.90
15922;DHT22;8060;50.948;3.146;2022-10-16T12:58:42;26.80;99.90
15922;DHT22;8060;50.948;3.146;2022-10-16T13:01:24;26.80;99.90
15922;DHT22;8060;50.948;3.146;2022-10-16T13:04:10;26.60;99.90
15922;DHT22;8060;50.948;3.146;2022-10-16T13:06:47;26.20;99.90
15922;DHT22;8060;50.948;3.146;2022-10-16T13:09:33;25.80;99.90
15922;DHT22;8060;50.948;3.146;2022-10-16T13:12:15;25.10;99.90
15922;DHT22;8060;50.948;3.146;2022-10-16T13:14:57;24.70;99.90
15922;DHT22;8060;50.948;3.146;2022-10-16T13:17:36;24.20;99.90
15922;DHT22;8060;50.948;3.146;2022-10-16T13:20:16;23.80;99.90
15922;DHT22;8060;50.948;3.146;2022-10-16T13:22:53;23.60;99.90
15922;DHT22;8060;50.948;3.146;2022-10-16T13:25:27;23.50;99.90
15922;DHT22;8060;50.948;3.146;2022-10-16T13:28:00;23.40;99.90
15922;DHT22;8060;50.948;3.146;2022-10-16T13:30:30;23.40;99.90
15922;DHT22;8060;50.948;3.146;2022-10-16T13:33:02;23.30;99.90
15922;DHT22;8060;50.948;3.146;2022-10-16T13:35:32;23.20;99.90
15922;DHT22;8060;50.948;3.146;2022-10-16T13:38:09;23.00;99.90
15922;DHT22;8060;50.948;3.146;2022-10-16T13:40:52;22.90;99.90
15922;DHT22;8060;50.948;3.146;2022-10-16T13:43:25;22.70;99.90
15922;DHT22;8060;50.948;3.146;2022-10-16T13:46:00;22.50;99.90
15922;DHT22;8060;50.948;3.146;2022-10-16T13:48:31;22.30;99.90
15922;DHT22;8060;50.948;3.146;2022-10-16T13:51:02;22.10;99.90
15922;DHT22;8060;50.948;3.146;2022-10-16T13:53:32;22.00;99.90
15922;DHT22;8060;50.948;3.146;2022-10-16T13:56:02;22.00;99.90
15922;DHT22;8060;50.948;3.146;2022-10-16T13:58:33;22.00;99.90
15922;DHT22;8060;50.948;3.146;2022-10-16T14:01:03;22.00;99.90
15922;DHT22;8060;50.948;3.146;2022-10-16T14:03:34;22.00;99.90
15922;DHT22;8060;50.948;3.146;2022-10-16T14:06:05;22.00;99.90
15922;DHT22;8060;50.948;3.146;2022-10-16T14:08:35;21.90;99.90
15922;DHT22;8060;50.948;3.146;2022-10-16T14:11:04;21.70;99.90
15922;DHT22;8060;50.948;3.146;2022-10-16T14:13:37;21.70;99.90
15922;DHT22;8060;50.948;3.146;2022-10-16T14:16:08;21.60;99.90
15922;DHT22;8060;50.948;3.146;2022-10-16T14:18:38;21.50;99.90
15922;DHT22;8060;50.948;3.146;2022-10-16T14:21:12;21.30;99.90
15922;DHT22;8060;50.948;3.146;2022-10-16T14:23:42;21.20;99.90
15922;DHT22;8060;50.948;3.146;2022-10-16T14:26:16;21.10;99.90
15922;DHT22;8060;50.948;3.146;2022-10-16T14:28:49;21.10;99.90
15922;DHT22;8060;50.948;3.146;2022-10-16T14:31:30;21.10;99.90
15922;DHT22;8060;50.948;3.146;2022-10-16T14:34:00;21.00;99.90
15922;DHT22;8060;50.948;3.146;2022-10-16T14:36:29;21.10;99.90
15922;DHT22;8060;50.948;3.146;2022-10-16T14:39:01;21.10;99.90
15922;DHT22;8060;50.948;3.146;2022-10-16T14:41:30;21.10;99.90
15922;DHT22;8060;50.948;3.146;2022-10-16T14:44:03;21.10;99.90
15922;DHT22;8060;50.948;3.146;2022-10-16T14:46:34;21.00;99.90
15922;DHT22;8060;50.948;3.146;2022-10-16T14:49:12;21.00;99.90
15922;DHT22;8060;50.948;3.146;2022-10-16T14:51:42;21.00;99.90
15922;DHT22;8060;50.948;3.146;2022-10-16T14:54:12;21.00;99.90
15922;DHT22;8060;50.948;3.146;2022-10-16T14:56:47;20.90;99.90
15922;DHT22;8060;50.948;3.146;2022-10-16T14:59:21;20.90;99.90
15922;DHT22;8060;50.948;3.146;2022-10-16T15:01:50;20.80;99.90
15922;DHT22;8060;50.948;3.146;2022-10-16T15:04:19;20.80;99.90
15922;DHT22;8060;50.948;3.146;2022-10-16T15:06:47;20.70;99.90
15922;DHT22;8060;50.948;3.146;2022-10-16T15:09:15;20.60;99.90
15922;DHT22;8060;50.948;3.146;2022-10-16T15:11:44;20.50;99.90
15922;DHT22;8060;50.948;3.146;2022-10-16T15:14:13;20.60;99.90
15922;DHT22;8060;50.948;3.146;2022-10-16T15:16:47;20.50;99.90
15922;DHT22;8060;50.948;3.146;2022-10-16T15:19:16;20.40;99.90
15922;DHT22;8060;50.948;3.146;2022-10-16T15:21:44;20.40;99.90
15922;DHT22;8060;50.948;3.146;2022-10-16T15:24:13;20.40;99.90
